createdAt,value
2022-08-20T00:02:10.204Z,101751.28
2022-08-20T00:04:36.783Z,101753.69
2022-08-20T00:07:06.130Z,101762.97
2022-08-20T00:09:33.098Z,101759.31
2022-08-20T00:12:05.129Z,101751.44
2022-08-20T00:14:31.764Z,101756.72
2022-08-20T00:17:01.182Z,101748.88
2022-08-20T00:19:27.685Z,101756.97
2022-08-20T00:21:57.547Z,101754.56
2022-08-20T00:24:25.620Z,101746.63
2022-08-20T00:26:52.756Z,101743.22
2022-08-20T00:29:20.256Z,101747.16
2022-08-20T00:31:46.993Z,101733.41
2022-08-20T00:34:13.446Z,101733.81
2022-08-20T00:36:39.911Z,101725.63
2022-08-20T00:39:06.431Z,101711.72
2022-08-20T00:41:32.997Z,101701.91
2022-08-20T00:44:32.150Z,101680.09
2022-08-20T00:46:58.697Z,101644.66
2022-08-20T00:49:28.841Z,101638.66
2022-08-20T00:52:07.457Z,101633.13
2022-08-20T00:54:43.516Z,101614.59
2022-08-20T00:57:24.565Z,101609.63
2022-08-20T00:59:52.577Z,101614.34
2022-08-20T01:02:23.143Z,101623.78
2022-08-20T01:04:49.849Z,101616.84
2022-08-20T01:07:16.361Z,101608.06
2022-08-20T01:09:58.577Z,101610.66
2022-08-20T01:12:28.543Z,101613.81
2022-08-20T01:14:56.475Z,101611.16
2022-08-20T01:17:25.863Z,101624.19
2022-08-20T01:20:12.879Z,101624.97
2022-08-20T01:23:04.292Z,101620.59
2022-08-20T01:25:55.063Z,101623.25
2022-08-20T01:28:26.265Z,101610.81
2022-08-20T01:30:53.965Z,101596.66
2022-08-20T01:33:22.699Z,101592.63
2022-08-20T01:35:49.753Z,101599.00
2022-08-20T01:38:17.381Z,101608.94
2022-08-20T01:40:57.525Z,101604.53
2022-08-20T01:43:24.506Z,101607.41
2022-08-20T01:45:52.097Z,101593.66
2022-08-20T01:48:19.537Z,101594.84
2022-08-20T01:50:55.497Z,101609.06
2022-08-20T01:53:33.554Z,101595.16
2022-08-20T01:56:02.893Z,101599.38
2022-08-20T01:58:29.305Z,101604.59
2022-08-20T02:00:57.714Z,101620.00
2022-08-20T02:03:24.609Z,101612.78
2022-08-20T02:05:51.105Z,101627.91
2022-08-20T02:08:17.537Z,101632.69
2022-08-20T02:10:43.988Z,101622.97
2022-08-20T02:13:10.449Z,101607.53
2022-08-20T02:15:42.865Z,101619.13
2022-08-20T02:18:13.116Z,101609.25
2022-08-20T02:20:40.961Z,101610.09
2022-08-20T02:23:08.626Z,101604.91
2022-08-20T02:25:37.787Z,101600.09
2022-08-20T02:28:08.657Z,101599.63
2022-08-20T02:30:40.085Z,101607.97
2022-08-20T02:33:08.977Z,101603.75
2022-08-20T02:35:36.357Z,101601.41
2022-08-20T02:38:03.504Z,101607.03
2022-08-20T02:40:31.434Z,101603.94
2022-08-20T02:42:59.684Z,101604.06
2022-08-20T02:45:27.460Z,101613.00
2022-08-20T02:47:53.982Z,101601.09
2022-08-20T02:50:22.918Z,101620.03
2022-08-20T02:52:51.656Z,101619.19
2022-08-20T02:55:27.031Z,101614.72
2022-08-20T02:57:58.619Z,101621.75
2022-08-20T03:00:27.015Z,101616.75
2022-08-20T03:02:53.534Z,101606.72
2022-08-20T03:05:20.079Z,101612.91
2022-08-20T03:07:49.309Z,101620.63
2022-08-20T03:10:16.643Z,101620.56
2022-08-20T03:12:43.145Z,101627.69
2022-08-20T03:15:17.923Z,101624.22
2022-08-20T03:17:45.154Z,101609.53
2022-08-20T03:20:12.726Z,101609.38
2022-08-20T03:22:39.360Z,101599.34
2022-08-20T03:25:07.442Z,101596.47
2022-08-20T03:27:36.529Z,101589.41
2022-08-20T03:30:07.548Z,101576.94
2022-08-20T03:32:34.084Z,101584.25
2022-08-20T03:35:00.525Z,101578.78
2022-08-20T03:37:31.724Z,101586.41
2022-08-20T03:39:58.732Z,101592.16
2022-08-20T03:42:25.984Z,101595.94
2022-08-20T03:44:58.958Z,101593.06
2022-08-20T03:47:26.699Z,101594.41
2022-08-20T03:49:58.815Z,101590.50
2022-08-20T03:52:25.748Z,101595.25
2022-08-20T03:54:52.174Z,101594.63
2022-08-20T03:57:18.632Z,101601.78
2022-08-20T03:59:45.138Z,101618.09
2022-08-20T04:02:12.467Z,101619.38
2022-08-20T04:04:40.699Z,101624.00
2022-08-20T04:07:21.241Z,101625.03
2022-08-20T04:09:47.700Z,101615.69
2022-08-20T04:12:14.138Z,101622.78
2022-08-20T04:14:41.328Z,101637.06
2022-08-20T04:17:10.655Z,101637.38
2022-08-20T04:19:37.894Z,101649.72
2022-08-20T04:22:05.355Z,101645.41
2022-08-20T04:24:32.759Z,101647.25
2022-08-20T04:27:01.640Z,101640.34
2022-08-20T04:29:32.471Z,101644.94
2022-08-20T04:31:59.676Z,101648.69
2022-08-20T04:34:26.340Z,101653.16
2022-08-20T04:36:52.762Z,101654.34
2022-08-20T04:39:19.212Z,101659.66
2022-08-20T04:41:45.846Z,101662.97
2022-08-20T04:44:12.656Z,101668.94
2022-08-20T04:46:40.554Z,101677.69
2022-08-20T04:49:07.480Z,101683.78
2022-08-20T04:51:34.158Z,101682.88
2022-08-20T04:54:03.652Z,101703.63
2022-08-20T04:56:32.879Z,101702.81
2022-08-20T04:59:01.485Z,101709.69
2022-08-20T05:01:29.295Z,101710.59
2022-08-20T05:06:30.344Z,101738.53
2022-08-20T05:08:58.742Z,101731.41
2022-08-20T05:11:34.637Z,101752.25
2022-08-20T05:14:04.068Z,101744.34
2022-08-20T05:16:30.497Z,101768.28
2022-08-20T05:18:57.074Z,101757.41
2022-08-20T05:21:23.544Z,101769.66
2022-08-20T05:23:50.045Z,101787.03
2022-08-20T05:26:17.654Z,101797.13
2022-08-20T05:28:54.405Z,101807.38
2022-08-20T05:31:32.261Z,101821.72
2022-08-20T05:34:05.161Z,101830.09
2022-08-20T05:36:31.591Z,101853.44
2022-08-20T05:38:58.065Z,101905.13
2022-08-20T05:41:28.637Z,102019.13
2022-08-20T05:43:58.462Z,102064.13
2022-08-20T05:46:24.924Z,102099.06
2022-08-20T05:48:51.424Z,102104.22
2022-08-20T05:51:17.910Z,101968.66
2022-08-20T05:53:44.374Z,101841.16
2022-08-20T05:56:11.012Z,101829.75
2022-08-20T05:58:37.885Z,101854.38
2022-08-20T06:01:04.810Z,101793.88
2022-08-20T06:03:31.607Z,101776.47
2022-08-20T06:06:00.692Z,101779.72
2022-08-20T06:08:27.207Z,101699.16
2022-08-20T06:10:53.618Z,101738.28
2022-08-20T06:13:20.174Z,101687.47
2022-08-20T06:15:46.757Z,101681.09
2022-08-20T06:18:27.569Z,101780.78
2022-08-20T06:20:55.491Z,101779.44
2022-08-20T06:23:22.036Z,101753.78
2022-08-20T06:25:48.575Z,101753.47
2022-08-20T06:28:15.062Z,101776.19
2022-08-20T06:30:41.644Z,101761.84
2022-08-20T06:33:08.131Z,101742.28
2022-08-20T06:35:34.724Z,101871.81
2022-08-20T06:38:01.304Z,102050.84
2022-08-20T06:40:28.968Z,102229.72
2022-08-20T06:42:56.522Z,102434.75
2022-08-20T06:45:26.395Z,102547.75
2022-08-20T06:47:56.244Z,102584.16
2022-08-20T06:50:27.488Z,102653.22
2022-08-20T06:52:54.102Z,102777.84
2022-08-20T06:55:21.827Z,102888.91
2022-08-20T06:57:56.568Z,102922.09
2022-08-20T07:00:23.178Z,102946.31
2022-08-20T07:02:51.877Z,102936.72
2022-08-20T07:05:18.418Z,103035.63
2022-08-20T07:07:47.049Z,102972.91
2022-08-20T07:10:15.414Z,102837.28
2022-08-20T07:12:41.862Z,102748.66
2022-08-20T07:15:10.758Z,102864.47
2022-08-20T07:17:38.209Z,102968.16
2022-08-20T07:20:14.461Z,102945.78
2022-08-20T07:22:43.036Z,102874.47
2022-08-20T07:25:12.538Z,102916.78
2022-08-20T07:27:38.999Z,102811.50
2022-08-20T07:30:12.190Z,103019.75
2022-08-20T07:32:39.778Z,102972.09
2022-08-20T07:35:14.878Z,102817.81
2022-08-20T07:37:44.807Z,102981.22
2022-08-20T07:40:14.959Z,103158.31
2022-08-20T07:42:41.902Z,102953.41
2022-08-20T07:45:12.625Z,103007.28
2022-08-20T07:47:40.976Z,103159.09
2022-08-20T07:50:09.744Z,103126.97
2022-08-20T07:52:36.743Z,103047.41
2022-08-20T07:55:09.056Z,103071.41
2022-08-20T07:57:36.800Z,103166.03
2022-08-20T08:00:08.223Z,102980.41
2022-08-20T08:02:34.752Z,103018.47
2022-08-20T08:05:01.442Z,103141.69
2022-08-20T08:07:28.801Z,103082.53
2022-08-20T08:09:57.233Z,102982.44
2022-08-20T08:12:28.575Z,102932.44
2022-08-20T08:14:55.080Z,102927.28
2022-08-20T08:17:21.975Z,103176.66
2022-08-20T08:19:50.034Z,102976.16
2022-08-20T08:22:18.919Z,103196.38
2022-08-20T08:24:57.011Z,103327.13
2022-08-20T08:27:23.978Z,103041.50
2022-08-20T08:29:50.392Z,103028.44
2022-08-20T08:32:17.104Z,103143.88
2022-08-20T08:34:43.520Z,103173.44
2022-08-20T08:37:09.910Z,103241.16
2022-08-20T08:39:36.533Z,103178.56
2022-08-20T08:42:24.285Z,103152.25
2022-08-20T08:44:50.826Z,103145.28
2022-08-20T08:47:25.899Z,103180.28
2022-08-20T08:49:52.560Z,103306.28
2022-08-20T08:52:27.405Z,103439.28
2022-08-20T08:54:58.888Z,102928.22
2022-08-20T08:57:26.328Z,102851.38
2022-08-20T09:00:03.975Z,102848.19
2022-08-20T09:02:31.955Z,102925.00
2022-08-20T09:05:01.831Z,102777.47
2022-08-20T09:07:32.830Z,102850.63
2022-08-20T09:10:00.654Z,102988.72
2022-08-20T09:12:27.151Z,103000.56
2022-08-20T09:14:54.246Z,102655.94
2022-08-20T09:17:23.175Z,102805.56
2022-08-20T09:19:50.028Z,102926.09
2022-08-20T09:22:19.744Z,102716.06
2022-08-20T09:24:46.228Z,102306.84
2022-08-20T09:27:13.017Z,102634.88
2022-08-20T09:29:39.981Z,102877.91
2022-08-20T09:32:06.511Z,102965.34
2022-08-20T09:34:41.726Z,103064.78
2022-08-20T09:37:08.576Z,103035.97
2022-08-20T09:39:35.970Z,103130.16
2022-08-20T09:42:18.392Z,102796.84
2022-08-20T09:44:45.053Z,102869.47
2022-08-20T09:47:11.992Z,102956.84
2022-08-20T09:49:39.425Z,102946.03
2022-08-20T09:52:11.894Z,102630.22
2022-08-20T09:54:40.004Z,102435.97
2022-08-20T09:57:16.114Z,102305.50
2022-08-20T09:59:42.702Z,102504.06
2022-08-20T10:02:09.182Z,102647.53
2022-08-20T10:04:35.704Z,102686.75
2022-08-20T10:07:02.128Z,102687.44
2022-08-20T10:09:28.568Z,102876.13
2022-08-20T10:11:55.026Z,102517.16
2022-08-20T10:14:21.464Z,102739.75
2022-08-20T10:16:55.426Z,102858.16
2022-08-20T10:19:25.880Z,102890.63
2022-08-20T10:21:53.830Z,102507.81
2022-08-20T10:24:21.374Z,102436.47
2022-08-20T10:26:48.393Z,102457.25
2022-08-20T10:29:15.500Z,102492.56
2022-08-20T10:31:42.021Z,102690.00
2022-08-20T10:34:08.508Z,102440.72
2022-08-20T10:36:34.942Z,102171.16
2022-08-20T10:39:01.356Z,102297.69
2022-08-20T10:41:27.827Z,102545.44
2022-08-20T10:43:54.223Z,102462.13
2022-08-20T10:46:20.684Z,102584.44
2022-08-20T10:48:47.110Z,102610.31
2022-08-20T10:51:13.520Z,102622.94
2022-08-20T10:53:40.101Z,102466.53
2022-08-20T10:56:06.802Z,102743.19
2022-08-20T10:58:39.505Z,102790.31
2022-08-20T11:01:06.344Z,103043.63
2022-08-20T11:03:32.893Z,102803.50
2022-08-20T11:05:59.395Z,102945.09
2022-08-20T11:08:34.254Z,102979.91
2022-08-20T11:11:04.057Z,102860.91
2022-08-20T11:13:30.482Z,102886.91
2022-08-20T11:15:57.002Z,102400.94
2022-08-20T11:18:23.519Z,102354.22
2022-08-20T11:20:50.167Z,101822.06
2022-08-20T11:23:16.613Z,101729.22
2022-08-20T11:25:43.073Z,101595.19
2022-08-20T11:28:09.651Z,101553.22
2022-08-20T11:30:37.181Z,101587.00
2022-08-20T11:33:04.302Z,101575.03
2022-08-20T11:35:50.052Z,101581.75
2022-08-20T11:38:18.000Z,101602.97
2022-08-20T11:40:44.686Z,101566.75
2022-08-20T11:43:14.681Z,101868.63
2022-08-20T11:45:42.288Z,102044.97
2022-08-20T11:48:08.684Z,102021.03
2022-08-20T11:50:35.289Z,102108.34
2022-08-20T11:53:01.874Z,101966.06
2022-08-20T11:55:30.553Z,101909.22
2022-08-20T11:57:59.758Z,101703.56
2022-08-20T12:00:32.560Z,101744.50
2022-08-20T12:03:00.470Z,101830.63
2022-08-20T12:05:27.078Z,101736.13
2022-08-20T12:07:53.471Z,101700.56
2022-08-20T12:10:19.868Z,101737.09
2022-08-20T12:12:46.274Z,101716.34
2022-08-20T12:15:12.724Z,101693.28
2022-08-20T12:17:39.170Z,101758.00
2022-08-20T12:20:10.217Z,101708.34
2022-08-20T12:22:37.032Z,101635.22
2022-08-20T12:25:04.871Z,101623.25
2022-08-20T12:27:32.927Z,101625.25
2022-08-20T12:30:01.994Z,101613.88
2022-08-20T12:32:31.064Z,101587.63
2022-08-20T12:34:57.846Z,101635.44
2022-08-20T12:37:27.111Z,101634.88
2022-08-20T12:39:56.084Z,101686.91
2022-08-20T12:42:23.118Z,101790.81
2022-08-20T12:44:49.876Z,101918.16
2022-08-20T12:47:18.100Z,101761.41
2022-08-20T12:49:52.209Z,101770.78
2022-08-20T12:52:20.266Z,101706.91
2022-08-20T12:54:47.305Z,101721.38
2022-08-20T12:57:16.744Z,101661.91
2022-08-20T12:59:43.244Z,101710.28
2022-08-20T13:02:18.559Z,101696.75
2022-08-20T13:04:45.708Z,101787.59
2022-08-20T13:07:12.948Z,101783.16
2022-08-20T13:09:40.316Z,101794.00
2022-08-20T13:12:07.447Z,101783.59
2022-08-20T13:14:34.307Z,101759.84
2022-08-20T13:17:01.603Z,101704.34
2022-08-20T13:19:30.048Z,101756.13
2022-08-20T13:21:57.073Z,101692.13
2022-08-20T13:24:23.532Z,101726.56
2022-08-20T13:26:50.685Z,101807.09
2022-08-20T13:29:18.647Z,101782.06
2022-08-20T13:31:45.228Z,101748.19
2022-08-20T13:34:12.163Z,101674.59
2022-08-20T13:36:38.701Z,101626.97
2022-08-20T13:39:06.695Z,101641.88
2022-08-20T13:41:33.883Z,101632.63
2022-08-20T13:44:00.421Z,101630.66
2022-08-20T13:46:26.896Z,101658.06
2022-08-20T13:48:53.333Z,101604.72
2022-08-20T13:51:19.767Z,101707.13
2022-08-20T13:53:48.255Z,101809.63
2022-08-20T13:56:14.846Z,101718.56
2022-08-20T13:58:41.265Z,101719.09
2022-08-20T14:01:07.763Z,101622.22
2022-08-20T14:03:34.218Z,101601.78
2022-08-20T14:06:02.648Z,101638.66
2022-08-20T14:08:29.112Z,101739.50
2022-08-20T14:10:55.942Z,101709.06
2022-08-20T14:13:25.939Z,101638.44
2022-08-20T14:15:52.727Z,101581.47
2022-08-20T14:18:19.233Z,101585.94
2022-08-20T14:20:46.304Z,101598.97
2022-08-20T14:23:13.618Z,101620.84
2022-08-20T14:25:40.619Z,101612.31
2022-08-20T14:28:19.586Z,101732.59
2022-08-20T14:30:47.344Z,101835.66
2022-08-20T14:33:19.887Z,101939.47
2022-08-20T14:35:46.448Z,101884.06
2022-08-20T14:38:12.910Z,101925.72
2022-08-20T14:40:39.362Z,101927.69
2022-08-20T14:43:05.834Z,101802.75
2022-08-20T14:45:32.228Z,101753.28
2022-08-20T14:47:58.722Z,101650.47
2022-08-20T14:50:33.993Z,101621.25
2022-08-20T14:53:01.300Z,101601.69
2022-08-20T14:55:33.031Z,101665.59
2022-08-20T14:57:59.540Z,101671.44
2022-08-20T15:00:29.476Z,101745.44
2022-08-20T15:02:56.915Z,101624.28
2022-08-20T15:05:23.840Z,101641.03
2022-08-20T15:07:53.931Z,101693.69
2022-08-20T15:10:27.144Z,101764.31
2022-08-20T15:12:54.275Z,101726.69
2022-08-20T15:15:21.118Z,101764.41
2022-08-20T15:17:51.020Z,101782.56
2022-08-20T15:20:21.127Z,101790.28
2022-08-20T15:22:48.679Z,101812.53
2022-08-20T15:25:19.452Z,101829.03
2022-08-20T15:27:46.367Z,101832.47
2022-08-20T15:30:18.751Z,101651.66
2022-08-20T15:32:45.349Z,101562.13
2022-08-20T15:35:11.963Z,101563.16
2022-08-20T15:37:44.558Z,101663.31
2022-08-20T15:40:16.003Z,101692.63
2022-08-20T15:42:43.005Z,101689.84
2022-08-20T15:45:11.141Z,101680.22
2022-08-20T15:47:50.786Z,101706.38
2022-08-20T15:50:48.377Z,101637.59
2022-08-20T15:53:26.261Z,101613.97
2022-08-20T15:56:13.771Z,101661.16
2022-08-20T15:58:56.645Z,101719.69
2022-08-20T16:01:28.888Z,101758.31
2022-08-20T16:04:29.716Z,101743.03
2022-08-20T16:07:03.058Z,101805.16
2022-08-20T16:09:52.739Z,101865.13
2022-08-20T16:12:37.376Z,101884.97
2022-08-20T16:15:20.187Z,101880.28
2022-08-20T16:17:57.992Z,101940.28
2022-08-20T16:20:35.139Z,101931.47
2022-08-20T16:23:02.885Z,101875.41
2022-08-20T16:25:52.917Z,101805.38
2022-08-20T16:28:26.914Z,101822.53
2022-08-20T16:31:05.253Z,101755.50
2022-08-20T16:33:35.834Z,101721.50
2022-08-20T16:36:20.154Z,101668.19
2022-08-20T16:39:25.274Z,101665.25
2022-08-20T16:41:54.675Z,101703.34
2022-08-20T16:44:29.923Z,101689.66
2022-08-20T16:47:14.078Z,101729.50
2022-08-20T16:49:48.317Z,101739.41
2022-08-20T16:52:14.800Z,101755.72
2022-08-20T16:54:43.989Z,101744.34
2022-08-20T16:57:16.556Z,101754.72
2022-08-20T16:59:58.921Z,101781.88
2022-08-20T17:02:26.357Z,101810.22
2022-08-20T17:04:59.505Z,101801.44
2022-08-20T17:07:46.352Z,101739.63
2022-08-20T17:10:29.781Z,101726.81
2022-08-20T17:13:10.905Z,101713.09
2022-08-20T17:15:37.300Z,101682.53
2022-08-20T17:18:24.233Z,101661.47
2022-08-20T17:20:50.656Z,101608.13
2022-08-20T17:23:19.138Z,101595.59
2022-08-20T17:26:04.965Z,101595.34
2022-08-20T17:28:35.184Z,101631.22
2022-08-20T17:31:01.954Z,101647.59
2022-08-20T17:33:32.735Z,101660.34
2022-08-20T17:36:08.937Z,101645.88
2022-08-20T17:38:48.088Z,101592.22
2022-08-20T17:41:22.157Z,101596.28
2022-08-20T17:43:58.022Z,101581.91
2022-08-20T17:46:25.313Z,101625.84
2022-08-20T17:48:52.733Z,101538.31
2022-08-20T17:51:23.979Z,101577.00
2022-08-20T17:53:55.035Z,101619.72
2022-08-20T17:56:27.393Z,101582.59
2022-08-20T17:59:03.381Z,101580.13
2022-08-20T18:01:32.366Z,101609.25
2022-08-20T18:03:58.762Z,101627.44
2022-08-20T18:06:29.860Z,101630.22
2022-08-20T18:09:14.517Z,101644.00
2022-08-20T18:11:58.516Z,101643.44
2022-08-20T18:14:57.324Z,101653.66
2022-08-20T18:17:39.080Z,101648.94
2022-08-20T18:20:23.413Z,101653.34
2022-08-20T18:22:56.847Z,101638.91
2022-08-20T18:25:48.186Z,101658.94
2022-08-20T18:28:19.345Z,101671.56
2022-08-20T18:30:58.106Z,101680.53
2022-08-20T18:33:33.703Z,101680.84
2022-08-20T18:36:12.417Z,101671.69
2022-08-20T18:38:41.998Z,101683.03
2022-08-20T18:41:27.772Z,101684.19
2022-08-20T18:44:03.651Z,101689.03
2022-08-20T18:46:30.155Z,101666.81
2022-08-20T18:48:59.889Z,101675.97
2022-08-20T18:51:37.520Z,101658.19
2022-08-20T18:54:04.817Z,101645.41
2022-08-20T18:56:37.461Z,101636.06
2022-08-20T18:59:17.714Z,101633.84
2022-08-20T19:01:47.345Z,101607.53
2022-08-20T19:04:18.032Z,101601.72
2022-08-20T19:06:55.482Z,101584.75
2022-08-20T19:09:46.791Z,101572.75
2022-08-20T19:12:26.897Z,101562.75
2022-08-20T19:15:16.181Z,101546.53
2022-08-20T19:17:54.571Z,101424.75
2022-08-20T19:20:24.813Z,101414.16
2022-08-20T19:22:53.909Z,101402.16
2022-08-20T19:25:30.258Z,101391.09
2022-08-20T19:27:59.800Z,101400.38
2022-08-20T19:30:36.411Z,101400.69
2022-08-20T19:33:03.803Z,101398.56
2022-08-20T19:35:30.427Z,101400.66
2022-08-20T19:37:56.904Z,101403.66
2022-08-20T19:40:28.318Z,101410.34
2022-08-20T19:42:56.462Z,101400.25
2022-08-20T19:45:48.540Z,101394.22
2022-08-20T19:48:33.725Z,101389.75
2022-08-20T19:51:06.305Z,101383.28
2022-08-20T19:53:35.881Z,101382.56
2022-08-20T19:56:25.071Z,101381.22
2022-08-20T19:59:03.904Z,101379.94
2022-08-20T20:01:30.994Z,101364.91
2022-08-20T20:04:13.955Z,101369.78
2022-08-20T20:06:45.408Z,101372.59
2022-08-20T20:09:21.771Z,101369.69
2022-08-20T20:11:52.828Z,101359.53
2022-08-20T20:14:21.213Z,101359.63
2022-08-20T20:16:51.168Z,101359.94
2022-08-20T20:19:27.464Z,101337.22
2022-08-20T20:22:20.233Z,101332.16
2022-08-20T20:25:18.967Z,101346.28
2022-08-20T20:27:52.692Z,101341.16
2022-08-20T20:30:42.901Z,101344.69
2022-08-20T20:33:33.831Z,101337.28
2022-08-20T20:36:12.230Z,101322.59
2022-08-20T20:38:52.504Z,101322.94
2022-08-20T20:41:23.046Z,101324.97
2022-08-20T20:44:00.935Z,101319.81
2022-08-20T20:46:29.040Z,101316.47
2022-08-20T20:49:00.770Z,101310.47
2022-08-20T20:51:35.580Z,101301.88
2022-08-20T20:54:21.239Z,101299.53
2022-08-20T20:57:06.971Z,101291.75
2022-08-20T20:59:36.114Z,101280.63
2022-08-20T21:02:03.304Z,101273.75
2022-08-20T21:04:29.860Z,101277.22
2022-08-20T21:07:06.531Z,101291.25
2022-08-20T21:09:35.233Z,101283.53
2022-08-20T21:12:03.111Z,101286.91
2022-08-20T21:14:29.679Z,101269.00
2022-08-20T21:17:00.302Z,101272.75
2022-08-20T21:19:30.383Z,101264.69
2022-08-20T21:21:57.009Z,101265.13
2022-08-20T21:24:28.328Z,101256.47
2022-08-20T21:26:56.113Z,101244.75
2022-08-20T21:29:40.557Z,101178.72
2022-08-20T21:32:07.347Z,101247.88
2022-08-20T21:34:40.359Z,101268.50
2022-08-20T21:37:06.971Z,101253.97
2022-08-20T21:39:33.484Z,101319.38
2022-08-20T21:42:02.555Z,101313.19
2022-08-20T21:44:30.842Z,101326.53
2022-08-20T21:46:59.874Z,101321.38
2022-08-20T21:49:28.338Z,101321.53
2022-08-20T21:51:55.421Z,101313.09
2022-08-20T21:54:23.008Z,101316.06
2022-08-20T21:56:54.711Z,101336.63
2022-08-20T21:59:22.747Z,101346.47
2022-08-20T22:01:49.766Z,101344.97
2022-08-20T22:04:16.270Z,101346.69
2022-08-20T22:06:42.778Z,101350.28
2022-08-20T22:09:09.721Z,101346.13
2022-08-20T22:11:36.357Z,101358.81
2022-08-20T22:14:06.753Z,101372.94
2022-08-20T22:16:33.182Z,101367.28
2022-08-20T22:18:59.820Z,101367.78
2022-08-20T22:21:29.301Z,101362.69
2022-08-20T22:24:03.475Z,101363.94
2022-08-20T22:26:31.259Z,101363.47
2022-08-20T22:28:57.766Z,101367.97
2022-08-20T22:31:28.788Z,101370.78
2022-08-20T22:33:58.013Z,101381.22
2022-08-20T22:36:27.075Z,101394.53
2022-08-20T22:38:56.409Z,101391.97
2022-08-20T22:41:23.002Z,101400.84
2022-08-20T22:43:56.379Z,101396.41
2022-08-20T22:46:26.487Z,101423.63
2022-08-20T22:48:56.062Z,101411.56
2022-08-20T22:51:27.539Z,101419.94
2022-08-20T22:53:54.428Z,101434.13
2022-08-20T22:56:21.959Z,101439.53
2022-08-20T22:58:50.156Z,101450.22
2022-08-20T23:01:17.378Z,101454.28
2022-08-20T23:03:43.946Z,101462.38
2022-08-20T23:06:10.965Z,101469.50
2022-08-20T23:08:38.178Z,101542.75
2022-08-20T23:11:04.949Z,101563.59
2022-08-20T23:13:31.476Z,101564.72
2022-08-20T23:15:58.367Z,101583.91
2022-08-20T23:18:24.973Z,101567.78
2022-08-20T23:20:54.576Z,101569.31
2022-08-20T23:23:21.061Z,101583.41
2022-08-20T23:25:47.884Z,101606.25
2022-08-20T23:28:18.109Z,101611.66
2022-08-20T23:30:45.255Z,101617.00
2022-08-20T23:33:12.163Z,101629.38
2022-08-20T23:35:39.731Z,101646.19
2022-08-20T23:38:06.879Z,101677.13
2022-08-20T23:43:00.338Z,101685.44
2022-08-20T23:45:27.921Z,101699.75
2022-08-20T23:47:54.400Z,101713.03
2022-08-20T23:50:25.164Z,101725.59
2022-08-20T23:52:52.597Z,101736.31
2022-08-20T23:55:19.922Z,101751.53
2022-08-20T23:57:46.581Z,101783.16
